createdAt,value
2022-09-12T00:01:40.324Z,2.70
2022-09-12T00:05:25.262Z,2.13
2022-09-12T00:09:09.693Z,2.80
2022-09-12T00:12:53.703Z,2.77
2022-09-12T00:16:37.113Z,2.33
2022-09-12T00:20:19.801Z,2.40
2022-09-12T00:24:02.660Z,2.20
2022-09-12T00:27:45.223Z,1.90
2022-09-12T00:31:29.432Z,2.43
2022-09-12T00:35:12.968Z,2.00
2022-09-12T00:38:55.615Z,2.10
2022-09-12T00:42:38.185Z,2.47
2022-09-12T00:46:26.697Z,2.10
2022-09-12T00:50:12.330Z,2.20
2022-09-12T00:53:56.022Z,1.90
2022-09-12T00:57:41.679Z,2.20
2022-09-12T01:01:24.346Z,2.20
2022-09-12T01:05:07.595Z,1.87
2022-09-12T01:08:52.560Z,1.90
2022-09-12T01:12:35.624Z,1.87
2022-09-12T01:16:18.344Z,2.10
2022-09-12T01:20:19.134Z,2.20
2022-09-12T01:24:16.530Z,2.13
2022-09-12T01:28:18.170Z,2.00
2022-09-12T01:32:05.511Z,2.10
2022-09-12T01:35:55.997Z,2.43
2022-09-12T01:39:41.746Z,2.33
2022-09-12T01:43:26.748Z,2.30
2022-09-12T01:47:13.006Z,1.80
2022-09-12T01:51:00.336Z,1.97
2022-09-12T01:54:44.890Z,2.00
2022-09-12T01:58:30.178Z,2.10
2022-09-12T02:02:16.360Z,2.10
2022-09-12T02:06:01.904Z,2.13
2022-09-12T02:09:46.437Z,2.00
2022-09-12T02:13:33.197Z,2.10
2022-09-12T02:17:19.554Z,2.10
2022-09-12T02:21:02.293Z,1.90
2022-09-12T02:24:47.287Z,1.90
2022-09-12T02:28:33.051Z,1.77
2022-09-12T02:32:22.187Z,1.90
2022-09-12T02:36:06.839Z,2.43
2022-09-12T02:39:49.390Z,1.83
2022-09-12T02:43:32.111Z,1.70
2022-09-12T02:47:17.080Z,2.20
2022-09-12T02:51:01.579Z,1.70
2022-09-12T02:54:44.187Z,2.10
2022-09-12T02:58:28.471Z,1.63
2022-09-12T03:02:17.538Z,2.00
2022-09-12T03:06:02.301Z,1.70
2022-09-12T03:09:50.051Z,1.73
2022-09-12T03:13:35.502Z,1.60
2022-09-12T03:17:25.159Z,1.70
2022-09-12T03:21:12.389Z,1.80
2022-09-12T03:24:58.220Z,2.00
2022-09-12T03:28:41.443Z,1.80
2022-09-12T03:32:38.848Z,1.50
2022-09-12T03:36:25.123Z,1.73
2022-09-12T03:40:08.670Z,1.80
2022-09-12T03:43:51.372Z,1.73
2022-09-12T03:47:33.911Z,1.80
2022-09-12T03:51:16.455Z,1.90
2022-09-12T03:55:00.463Z,1.80
2022-09-12T03:58:46.119Z,1.83
2022-09-12T04:02:28.828Z,1.70
2022-09-12T04:06:12.128Z,1.50
2022-09-12T04:09:56.417Z,1.80
2022-09-12T04:13:41.392Z,1.70
2022-09-12T04:17:23.901Z,1.60
2022-09-12T04:21:09.811Z,1.90
2022-09-12T04:24:52.312Z,1.63
2022-09-12T04:28:35.789Z,1.90
2022-09-12T04:32:19.993Z,1.83
2022-09-12T04:36:09.152Z,2.00
2022-09-12T04:39:51.827Z,2.03
2022-09-12T04:43:34.693Z,1.77
2022-09-12T04:47:17.829Z,1.90
2022-09-12T04:51:08.883Z,1.87
2022-09-12T04:54:53.098Z,1.90
2022-09-12T04:58:35.997Z,1.70
2022-09-12T05:02:18.645Z,1.90
2022-09-12T05:06:03.012Z,1.93
2022-09-12T05:09:47.063Z,1.80
2022-09-12T05:13:29.703Z,1.73
2022-09-12T05:17:12.364Z,1.70
2022-09-12T05:20:54.967Z,1.87
2022-09-12T05:24:39.299Z,1.80
2022-09-12T05:28:27.097Z,1.93
2022-09-12T05:32:09.648Z,1.83
2022-09-12T05:35:52.546Z,2.43
2022-09-12T05:39:35.098Z,2.23
2022-09-12T05:43:21.185Z,2.33
2022-09-12T05:47:05.164Z,2.50
2022-09-12T05:50:47.646Z,2.53
2022-09-12T05:54:33.374Z,2.47
2022-09-12T05:58:20.729Z,2.13
2022-09-12T06:02:03.340Z,2.37
2022-09-12T06:05:50.662Z,2.30
2022-09-12T06:09:33.287Z,2.67
2022-09-12T06:13:15.924Z,2.30
2022-09-12T06:16:58.476Z,2.30
2022-09-12T06:20:41.006Z,2.20
2022-09-12T06:24:24.902Z,2.33
2022-09-12T06:28:08.453Z,3.00
2022-09-12T06:31:51.012Z,2.67
2022-09-12T06:35:36.599Z,2.50
2022-09-12T06:39:20.619Z,2.30
2022-09-12T06:43:05.580Z,2.37
2022-09-12T06:46:48.211Z,2.20
2022-09-12T06:50:31.096Z,2.40
2022-09-12T06:54:14.578Z,3.67
2022-09-12T06:57:57.087Z,3.60
2022-09-12T07:01:41.799Z,6.20
2022-09-12T07:05:24.609Z,4.50
2022-09-12T07:09:07.976Z,3.50
2022-09-12T07:12:50.474Z,2.80
2022-09-12T07:16:33.320Z,3.20
2022-09-12T07:20:17.359Z,2.87
2022-09-12T07:23:59.880Z,2.80
2022-09-12T07:27:44.728Z,2.97
2022-09-12T07:36:19.830Z,2.70
2022-09-12T07:40:02.603Z,3.27
2022-09-12T07:43:51.453Z,3.73
2022-09-12T07:47:33.920Z,3.50
2022-09-12T07:51:17.336Z,2.47
2022-09-12T07:55:01.296Z,3.60
2022-09-12T07:58:44.638Z,3.43
2022-09-12T08:02:27.246Z,2.80
2022-09-12T08:06:11.195Z,3.00
2022-09-12T08:09:54.696Z,2.77
2022-09-12T08:13:39.054Z,2.30
2022-09-12T08:17:22.003Z,2.70
2022-09-12T08:21:05.573Z,2.50
2022-09-12T08:24:48.135Z,2.10
2022-09-12T08:28:30.961Z,2.07
2022-09-12T08:32:14.857Z,2.50
2022-09-12T08:36:03.531Z,2.30
2022-09-12T08:39:46.042Z,2.10
2022-09-12T08:43:34.098Z,3.07
2022-09-12T08:47:23.057Z,2.80
2022-09-12T08:51:06.102Z,2.67
2022-09-12T08:54:50.115Z,2.70
2022-09-12T08:58:35.770Z,2.50
2022-09-12T09:02:36.319Z,2.60
2022-09-12T09:06:26.795Z,2.20
2022-09-12T09:10:13.950Z,2.50
2022-09-12T09:14:21.959Z,2.43
2022-09-12T09:18:07.486Z,2.47
2022-09-12T09:21:53.605Z,2.30
2022-09-12T09:25:42.143Z,3.17
2022-09-12T09:29:26.115Z,2.47
2022-09-12T09:33:12.359Z,2.67
2022-09-12T09:36:58.940Z,2.67
2022-09-12T09:40:46.950Z,2.23
2022-09-12T09:44:30.109Z,2.03
2022-09-12T09:48:16.855Z,2.10
2022-09-12T09:52:01.935Z,1.87
2022-09-12T09:55:45.649Z,1.97
2022-09-12T09:59:29.040Z,2.97
2022-09-12T10:03:29.428Z,2.20
2022-09-12T10:07:21.109Z,4.50
2022-09-12T10:11:04.943Z,6.40
2022-09-12T10:14:57.956Z,2.50
2022-09-12T10:18:42.205Z,2.33
2022-09-12T10:22:28.634Z,2.00
2022-09-12T10:26:14.379Z,1.90
2022-09-12T10:30:01.724Z,1.97
2022-09-12T10:33:47.137Z,2.17
2022-09-12T10:37:35.393Z,2.70
2022-09-12T10:41:18.355Z,2.00
2022-09-12T10:45:00.871Z,2.03
2022-09-12T10:48:44.165Z,3.03
2022-09-12T10:52:27.404Z,2.17
2022-09-12T10:56:13.493Z,2.33
2022-09-12T11:00:14.311Z,2.00
2022-09-12T11:04:14.661Z,2.50
2022-09-12T11:08:00.215Z,2.00
2022-09-12T11:11:49.015Z,2.17
2022-09-12T11:15:38.351Z,2.40
2022-09-12T11:19:29.831Z,2.27
2022-09-12T11:23:27.429Z,2.60
2022-09-12T11:27:26.783Z,2.60
2022-09-12T11:31:18.139Z,1.93
2022-09-12T11:35:05.761Z,2.17
2022-09-12T11:39:00.442Z,2.23
2022-09-12T11:42:45.630Z,2.10
2022-09-12T11:46:31.091Z,2.10
2022-09-12T11:50:18.217Z,2.03
2022-09-12T11:54:07.683Z,2.20
2022-09-12T11:57:54.645Z,2.10
2022-09-12T12:01:45.079Z,2.30
2022-09-12T12:05:35.234Z,1.90
2022-09-12T12:09:17.801Z,2.00
2022-09-12T12:13:05.599Z,2.00
2022-09-12T12:16:48.750Z,2.10
2022-09-12T12:20:34.816Z,2.22
2022-09-12T12:24:20.153Z,2.28
2022-09-12T12:28:06.379Z,1.87
2022-09-12T12:32:07.768Z,2.00
2022-09-12T12:36:03.285Z,1.85
2022-09-12T12:40:05.779Z,1.70
2022-09-12T12:43:50.094Z,1.73
2022-09-12T12:47:34.171Z,1.80
2022-09-12T12:51:18.495Z,2.42
2022-09-12T12:55:01.361Z,2.10
2022-09-12T12:58:44.290Z,1.80
2022-09-12T13:02:31.864Z,1.90
2022-09-12T13:06:23.822Z,1.63
2022-09-12T13:10:07.339Z,2.10
2022-09-12T13:13:51.565Z,1.83
2022-09-12T13:17:37.254Z,1.80
2022-09-12T13:21:20.752Z,1.60
2022-09-12T13:25:04.489Z,1.52
2022-09-12T13:28:49.171Z,1.60
2022-09-12T13:32:31.869Z,1.70
2022-09-12T13:36:30.664Z,1.70
2022-09-12T13:40:28.457Z,1.60
2022-09-12T13:44:13.280Z,1.52
2022-09-12T13:47:58.814Z,2.10
2022-09-12T13:51:44.379Z,2.45
2022-09-12T13:55:31.485Z,1.48
2022-09-12T13:59:13.971Z,1.60
2022-09-12T14:03:10.907Z,1.60
2022-09-12T14:06:57.573Z,1.50
2022-09-12T14:10:41.161Z,1.42
2022-09-12T14:14:27.996Z,1.38
2022-09-12T14:18:22.202Z,1.17
2022-09-12T14:22:06.174Z,1.20
2022-09-12T14:25:49.813Z,1.33
2022-09-12T14:29:34.708Z,2.13
2022-09-12T14:33:19.473Z,1.50
2022-09-12T14:37:07.042Z,1.65
2022-09-12T14:40:52.462Z,1.40
2022-09-12T14:44:36.136Z,1.42
2022-09-12T14:48:20.203Z,1.55
2022-09-12T14:52:03.855Z,1.23
2022-09-12T14:55:50.796Z,1.20
2022-09-12T14:59:39.153Z,2.78
2022-09-12T15:03:25.286Z,1.70
2022-09-12T15:07:14.926Z,1.30
2022-09-12T15:10:57.447Z,2.10
2022-09-12T15:14:41.415Z,2.28
2022-09-12T15:18:24.720Z,1.65
2022-09-12T15:22:07.252Z,1.50
2022-09-12T15:25:50.827Z,1.25
2022-09-12T15:29:33.370Z,1.20
2022-09-12T15:33:17.422Z,1.60
2022-09-12T15:37:02.531Z,1.63
2022-09-12T15:40:46.512Z,1.50
2022-09-12T15:44:29.035Z,1.30
2022-09-12T15:48:11.970Z,1.33
2022-09-12T15:51:55.948Z,1.63
2022-09-12T15:55:38.560Z,1.80
2022-09-12T15:59:21.258Z,1.50
2022-09-12T16:03:03.820Z,1.63
2022-09-12T16:06:46.448Z,1.52
2022-09-12T16:10:33.415Z,1.70
2022-09-12T16:14:16.428Z,1.38
2022-09-12T16:17:58.951Z,2.10
2022-09-12T16:21:41.443Z,1.50
2022-09-12T16:25:25.352Z,1.80
2022-09-12T16:29:09.922Z,2.00
2022-09-12T16:32:53.116Z,1.55
2022-09-12T16:36:35.621Z,2.00
2022-09-12T16:40:19.394Z,2.25
2022-09-12T16:44:02.313Z,2.03
2022-09-12T16:47:46.221Z,1.75
2022-09-12T16:51:31.465Z,1.73
2022-09-12T16:55:13.998Z,2.72
2022-09-12T16:58:59.480Z,1.90
2022-09-12T17:02:42.137Z,2.10
2022-09-12T17:06:26.708Z,2.03
2022-09-12T17:10:11.857Z,1.80
2022-09-12T17:14:04.984Z,3.20
2022-09-12T17:17:48.223Z,9.88
2022-09-12T17:21:32.263Z,10.50
2022-09-12T17:25:14.880Z,3.80
2022-09-12T17:28:57.455Z,3.10
2022-09-12T17:32:40.085Z,5.25
2022-09-12T17:36:23.251Z,5.07
2022-09-12T17:40:08.068Z,5.32
2022-09-12T17:43:52.086Z,3.15
2022-09-12T17:47:34.621Z,3.22
2022-09-12T17:51:17.238Z,2.90
2022-09-12T17:55:02.460Z,3.95
2022-09-12T17:58:46.444Z,3.50
2022-09-12T18:02:32.609Z,3.42
2022-09-12T18:06:16.023Z,4.97
2022-09-12T18:09:59.809Z,3.25
2022-09-12T18:13:42.394Z,3.05
2022-09-12T18:17:27.449Z,3.10
2022-09-12T18:21:11.302Z,3.20
2022-09-12T18:24:53.921Z,3.35
2022-09-12T18:28:37.875Z,4.20
2022-09-12T18:32:20.402Z,4.90
2022-09-12T18:36:05.962Z,4.03
2022-09-12T18:39:48.560Z,4.00
2022-09-12T18:43:31.642Z,3.20
2022-09-12T18:47:14.227Z,4.15
2022-09-12T18:51:02.235Z,3.43
2022-09-12T18:54:46.250Z,3.63
2022-09-12T18:58:29.001Z,4.27
2022-09-12T19:02:17.651Z,3.97
2022-09-12T19:06:00.174Z,3.78
2022-09-12T19:09:42.751Z,4.63
2022-09-12T19:13:26.694Z,3.97
2022-09-12T19:17:09.510Z,3.87
2022-09-12T19:20:52.583Z,4.33
2022-09-12T19:24:35.451Z,4.07
2022-09-12T19:28:17.990Z,3.80
2022-09-12T19:32:02.022Z,4.93
2022-09-12T19:35:44.550Z,5.93
2022-09-12T19:39:27.211Z,5.90
2022-09-12T19:43:10.534Z,5.40
2022-09-12T19:46:53.052Z,4.20
2022-09-12T19:50:37.058Z,4.10
2022-09-12T19:54:19.588Z,3.97
2022-09-12T19:58:02.084Z,3.73
2022-09-12T20:01:44.823Z,4.10
2022-09-12T20:05:29.383Z,4.30
2022-09-12T20:09:17.055Z,5.13
2022-09-12T20:12:59.690Z,4.43
2022-09-12T20:16:42.259Z,6.87
2022-09-12T20:20:26.655Z,5.97
2022-09-12T20:24:11.233Z,4.70
2022-09-12T20:27:59.919Z,4.70
2022-09-12T20:31:43.558Z,4.07
2022-09-12T20:35:26.729Z,5.30
2022-09-12T20:39:13.703Z,5.43
2022-09-12T20:42:58.063Z,4.90
2022-09-12T20:46:40.926Z,4.57
2022-09-12T20:50:23.568Z,4.30
2022-09-12T20:54:09.543Z,4.30
2022-09-12T20:57:52.126Z,4.77
2022-09-12T21:01:36.139Z,4.40
2022-09-12T21:05:18.974Z,4.57
2022-09-12T21:09:01.640Z,4.27
2022-09-12T21:12:44.181Z,4.07
2022-09-12T21:16:27.145Z,3.90
2022-09-12T21:20:11.783Z,4.10
2022-09-12T21:23:55.354Z,4.40
2022-09-12T21:27:37.984Z,4.23
2022-09-12T21:31:20.858Z,4.27
2022-09-12T21:35:04.057Z,4.40
2022-09-12T21:38:48.139Z,3.73
2022-09-12T21:42:31.843Z,4.90
2022-09-12T21:46:14.589Z,6.37
2022-09-12T21:49:57.652Z,9.00
2022-09-12T21:53:40.223Z,4.50
2022-09-12T21:57:24.113Z,3.80
2022-09-12T22:01:08.695Z,4.10
2022-09-12T22:04:51.256Z,4.33
2022-09-12T22:08:35.157Z,3.87
2022-09-12T22:12:18.131Z,4.27
2022-09-12T22:16:03.534Z,4.60
2022-09-12T22:19:46.538Z,4.10
2022-09-12T22:23:46.831Z,4.10
2022-09-12T22:27:29.455Z,4.00
2022-09-12T22:31:14.183Z,4.07
2022-09-12T22:34:57.868Z,4.20
2022-09-12T22:38:40.502Z,3.90
2022-09-12T22:42:23.406Z,4.13
2022-09-12T22:46:06.882Z,4.30
2022-09-12T22:49:50.829Z,4.10
2022-09-12T22:53:33.351Z,4.00
2022-09-12T22:57:15.836Z,4.53
2022-09-12T23:00:58.370Z,4.13
2022-09-12T23:04:40.968Z,3.50
2022-09-12T23:08:27.555Z,3.40
2022-09-12T23:12:10.075Z,3.00
2022-09-12T23:15:57.720Z,2.90
2022-09-12T23:19:40.293Z,2.97
2022-09-12T23:23:22.768Z,3.10
2022-09-12T23:27:07.070Z,2.93
2022-09-12T23:30:59.540Z,2.80
2022-09-12T23:34:42.040Z,3.07
2022-09-12T23:38:24.529Z,3.17
2022-09-12T23:42:08.558Z,3.00
2022-09-12T23:45:51.337Z,2.73
2022-09-12T23:49:34.008Z,2.70
2022-09-12T23:53:17.494Z,2.73
2022-09-12T23:57:00.058Z,2.50
